Clearfield, Iowa
Current Conditions -  °F | °C
As of 2:55 AM on Monday 20 Oct 2014 (Local Time) from KCSQ Reporting Station
Clear Clear  
Wind Chill: 50°   Ceiling: Unl
Heat Index: 50°   Visibility: 10mi
Dew Point: 46°   Wind: 5mph
Humidity: 87%   Direction: 280°W
Pressure: 29.96"   Gusts: NA
Location:  40.8°N, 94.48°W
Report Text: KCSQ 200755Z AUTO 28004KT 10SM CLR 10/08 A2996 RMK AO2
Loading
Personal Weather Stations






























Interactive Weather Map New forecast layout! Learn more

10-Day Weather Forecast

Advertisements
Track Severe Weather on mobile